ATH weather

Eleftherios Venizelos International Airport
Athens, Attica, Greece

Public forecast

Using degrees Celsius for public forecast. Weather courtesy of forecast.io.

METAR (pilot weather report)

Retrieved 2018/11/16 21:20 UTC (22 minutes ago):

LGAV 162120Z 05014KT 9999 DZ SCT030 13/05 Q1021 NOSIG

TAF (pilot weather forecast)

Retrieved 2018/11/16 18:12 UTC (3 hours ago):

TAF TAF LGAV 161700Z 1618/1718 03015KT 9999 FEW018 SCT025 BKN070 PROB40 TEMPO 1618/1712 5000 RA BKN020 BKN070 PROB30 TEMPO 1700/1710 4000 TSRA FEW018CB BKN020 BKN070